Time;durP1;ratioP1;P1;durP2;ratioP2;P2;SDS_P1;SDS_P2;PMS_P1;PMS_P2;Temp;Humidity;BMP_temperature;BMP_pressure;BME280_temperature;BME280_humidity;BME280_pressure;Samples;Min_cycle;Max_cycle;Signal;HPM_P1;HPM_P2
2022/10/20 00:01:49;;;;;;;10.27;8.00;;;13.70;94.90;;;;;;5077911;28;20643;-73
2022/10/20 00:04:16;;;;;;;13.83;9.30;;;13.70;95.00;;;;;;5076753;28;20444;-73
2022/10/20 00:06:42;;;;;;;10.10;9.10;;;13.70;95.20;;;;;;5074908;28;20818;-73
2022/10/20 00:09:11;;;;;;;12.40;9.60;;;13.70;95.20;;;;;;5073934;28;20859;-73
2022/10/20 00:11:37;;;;;;;11.33;8.87;;;13.80;95.30;;;;;;5074059;28;20482;-74
2022/10/20 00:14:04;;;;;;;12.43;8.53;;;13.80;95.30;;;;;;5073858;28;20460;-73
2022/10/20 00:16:35;;;;;;;10.50;8.67;;;13.80;95.20;;;;;;5073931;28;20452;-73
2022/10/20 00:19:02;;;;;;;11.77;8.90;;;13.80;95.10;;;;;;5073794;28;20432;-73
2022/10/20 00:21:29;;;;;;;12.23;9.57;;;13.80;95.20;;;;;;5073552;28;21130;-73
2022/10/20 00:23:59;;;;;;;14.77;8.30;;;13.70;95.30;;;;;;5079805;28;20500;-74
2022/10/20 00:26:29;;;;;;;12.47;9.73;;;13.80;95.40;;;;;;5114749;28;20450;-73
2022/10/20 00:28:56;;;;;;;10.17;8.53;;;13.80;95.40;;;;;;5099368;28;21035;-74
2022/10/20 00:31:25;;;;;;;10.33;9.17;;;13.80;95.40;;;;;;5094245;28;20454;-73
2022/10/20 00:33:52;;;;;;;11.13;9.70;;;13.80;95.30;;;;;;5094113;28;20455;-73
2022/10/20 00:36:20;;;;;;;13.70;9.77;;;13.80;95.20;;;;;;5094149;28;20460;-73
2022/10/20 00:38:47;;;;;;;11.40;10.10;;;13.80;95.40;;;;;;5094120;28;20447;-73
2022/10/20 00:41:15;;;;;;;12.00;9.37;;;13.80;95.60;;;;;;5086476;28;22610;-74
2022/10/20 00:43:47;;;;;;;15.07;10.30;;;13.80;95.60;;;;;;5077993;28;20488;-74
2022/10/20 00:46:17;;;;;;;16.13;9.67;;;13.80;95.60;;;;;;5081673;28;20468;-74
2022/10/20 00:48:48;;;;;;;14.33;9.30;;;13.80;95.70;;;;;;5087231;28;21002;-74
2022/10/20 00:51:18;;;;;;;13.20;8.70;;;13.80;95.70;;;;;;5072474;28;20491;-74
2022/10/20 00:53:46;;;;;;;14.90;10.00;;;13.80;95.80;;;;;;5073118;28;20467;-73
2022/10/20 00:56:13;;;;;;;9.93;8.80;;;13.80;95.80;;;;;;5073328;28;20467;-74
2022/10/20 00:58:40;;;;;;;12.50;9.17;;;13.80;95.80;;;;;;5082396;28;20465;-74
2022/10/20 01:01:08;;;;;;;12.67;10.23;;;13.70;95.90;;;;;;5082895;28;20495;-73
2022/10/20 01:03:41;;;;;;;14.67;9.47;;;13.70;96.00;;;;;;5082371;28;20534;-73
2022/10/20 01:06:08;;;;;;;18.33;10.73;;;13.70;96.10;;;;;;5072854;28;20460;-74
2022/10/20 01:08:35;;;;;;;11.77;10.07;;;13.70;96.00;;;;;;5072109;28;20499;-74
2022/10/20 01:11:10;;;;;;;14.50;10.97;;;13.70;96.10;;;;;;5078059;28;20496;-74
2022/10/20 01:13:43;;;;;;;11.50;9.83;;;13.60;96.20;;;;;;5085100;28;20463;-74
2022/10/20 01:16:17;;;;;;;15.00;9.77;;;13.60;96.30;;;;;;5081309;28;20457;-74
2022/10/20 01:18:56;;;;;;;13.23;10.87;;;13.60;96.30;;;;;;5076845;28;20462;-74
2022/10/20 01:21:48;;;;;;;14.70;10.10;;;13.60;96.30;;;;;;5088980;28;20453;-73
2022/10/20 01:24:42;;;;;;;13.80;10.37;;;13.70;96.30;;;;;;5095408;28;20467;-73
2022/10/20 01:27:31;;;;;;;14.00;9.40;;;13.60;96.20;;;;;;5098531;28;20462;-74
2022/10/20 01:30:05;;;;;;;10.30;9.30;;;13.60;96.30;;;;;;5110204;28;20495;-73
2022/10/20 01:32:56;;;;;;;15.50;10.90;;;13.60;96.40;;;;;;5107741;28;20478;-74
2022/10/20 01:35:33;;;;;;;19.60;10.67;;;13.60;96.50;;;;;;5083715;28;20476;-74
2022/10/20 01:38:07;;;;;;;14.20;10.67;;;13.60;96.50;;;;;;5100480;28;20483;-73
2022/10/20 01:40:40;;;;;;;9.90;8.90;;;13.60;96.40;;;;;;5093354;28;20528;-74
2022/10/20 01:43:13;;;;;;;10.60;9.50;;;13.50;96.40;;;;;;5094881;28;20555;-74
2022/10/20 01:45:44;;;;;;;11.93;9.27;;;13.50;96.40;;;;;;5095158;28;20823;-74
2022/10/20 01:48:13;;;;;;;11.10;9.37;;;13.50;96.50;;;;;;5106973;28;20463;-75
2022/10/20 01:50:40;;;;;;;12.00;9.67;;;13.60;96.50;;;;;;5113623;28;20471;-74
2022/10/20 01:53:08;;;;;;;10.60;9.50;;;13.60;96.40;;;;;;5103423;28;20455;-74
2022/10/20 01:55:35;;;;;;;12.47;9.00;;;13.60;96.30;;;;;;5100649;28;20467;-74
2022/10/20 01:58:30;;;;;;;9.67;8.40;;;13.60;96.20;;;;;;5093480;28;20982;-73
2022/10/20 02:01:01;;;;;;;10.20;8.53;;;13.60;96.20;;;;;;5097739;28;20487;-74
2022/10/20 02:03:40;;;;;;;14.10;7.93;;;13.60;96.10;;;;;;5094622;28;20466;-73
2022/10/20 02:06:18;;;;;;;11.20;9.10;;;13.60;96.20;;;;;;5097355;28;20460;-74
2022/10/20 02:08:47;;;;;;;16.67;10.70;;;13.60;96.00;;;;;;5103832;28;20523;-73
2022/10/20 02:11:22;;;;;;;12.97;9.60;;;13.60;96.10;;;;;;5114287;28;20467;-74
2022/10/20 02:13:52;;;;;;;12.77;8.60;;;13.60;96.10;;;;;;5100568;28;20460;-75
2022/10/20 02:16:27;;;;;;;13.43;10.00;;;13.60;96.20;;;;;;5110605;28;20469;-73
2022/10/20 02:18:54;;;;;;;11.23;9.03;;;13.60;96.40;;;;;;5095607;28;20460;-74
2022/10/20 02:21:21;;;;;;;10.90;9.10;;;13.60;96.10;;;;;;5092298;28;20464;-74
2022/10/20 02:23:50;;;;;;;13.97;10.10;;;13.60;96.00;;;;;;5093231;28;20517;-73
2022/10/20 02:26:21;;;;;;;10.27;8.50;;;13.60;96.00;;;;;;5095651;28;20474;-74
2022/10/20 02:28:53;;;;;;;9.50;8.60;;;13.60;96.00;;;;;;5095054;28;20468;-73
2022/10/20 02:31:20;;;;;;;14.43;9.57;;;13.70;96.00;;;;;;5098448;28;20459;-74
2022/10/20 02:33:48;;;;;;;10.10;8.73;;;13.60;95.90;;;;;;5094816;28;20453;-74
2022/10/20 02:36:19;;;;;;;12.53;8.43;;;13.60;95.80;;;;;;5092523;28;20444;-74
2022/10/20 02:38:46;;;;;;;11.00;9.80;;;13.60;95.90;;;;;;5096583;28;20431;-74
2022/10/20 02:41:13;;;;;;;12.13;9.13;;;13.60;95.90;;;;;;5094936;28;20472;-74
2022/10/20 02:43:40;;;;;;;12.97;9.40;;;13.60;96.00;;;;;;5093879;28;20454;-73
2022/10/20 02:46:08;;;;;;;11.73;8.90;;;13.60;95.90;;;;;;5094388;28;20455;-73
2022/10/20 02:48:37;;;;;;;9.53;8.30;;;13.60;95.90;;;;;;5094676;28;20452;-74
2022/10/20 02:51:04;;;;;;;19.80;9.67;;;13.50;95.80;;;;;;5091989;28;20480;-73
2022/10/20 02:53:31;;;;;;;12.17;8.90;;;13.50;95.80;;;;;;5094060;28;20452;-74
2022/10/20 02:55:57;;;;;;;10.80;8.50;;;13.50;95.80;;;;;;5094757;28;20459;-73
2022/10/20 02:58:24;;;;;;;10.30;8.00;;;13.50;95.90;;;;;;5095281;28;20444;-73
2022/10/20 03:00:51;;;;;;;8.57;7.10;;;13.50;95.80;;;;;;5094445;28;20818;-73
2022/10/20 03:03:19;;;;;;;9.17;8.27;;;13.60;95.60;;;;;;5094260;28;20437;-73
2022/10/20 03:05:46;;;;;;;12.03;8.60;;;13.50;95.60;;;;;;5093934;28;20449;-74
2022/10/20 03:08:13;;;;;;;12.80;9.00;;;13.60;95.70;;;;;;5093708;28;20463;-73
2022/10/20 03:10:40;;;;;;;10.47;8.80;;;13.60;95.60;;;;;;5091368;28;20501;-73
2022/10/20 03:13:07;;;;;;;10.43;8.20;;;13.60;95.40;;;;;;5090519;28;20461;-73
2022/10/20 03:15:34;;;;;;;13.70;8.13;;;13.60;95.20;;;;;;5085940;28;20447;-72
2022/10/20 03:18:01;;;;;;;10.80;8.10;;;13.60;95.20;;;;;;5081880;28;20828;-72
2022/10/20 03:20:29;;;;;;;14.00;8.00;;;13.50;95.30;;;;;;5090781;28;20468;-73
2022/10/20 03:22:56;;;;;;;10.60;8.87;;;13.50;95.40;;;;;;5091991;28;20452;-73
2022/10/20 03:25:22;;;;;;;9.80;7.73;;;13.50;95.20;;;;;;5093587;28;20452;-73
2022/10/20 03:27:49;;;;;;;10.47;8.17;;;13.50;95.30;;;;;;5091811;28;20815;-73
2022/10/20 03:30:16;;;;;;;8.30;7.47;;;13.50;95.40;;;;;;5091931;28;20488;-73
2022/10/20 03:32:43;;;;;;;9.10;8.20;;;13.50;95.30;;;;;;5090600;28;20451;-73
2022/10/20 03:35:10;;;;;;;9.67;7.70;;;13.50;95.20;;;;;;5090949;28;20447;-73
2022/10/20 03:37:38;;;;;;;11.23;7.70;;;13.50;95.20;;;;;;5088407;28;20451;-73
2022/10/20 03:40:05;;;;;;;11.60;8.63;;;13.50;95.10;;;;;;5087677;28;20465;-73
2022/10/20 03:42:32;;;;;;;10.70;8.47;;;13.50;95.10;;;;;;5085699;28;20471;-73
2022/10/20 03:44:59;;;;;;;11.37;8.30;;;13.50;95.00;;;;;;5091083;28;20456;-73
2022/10/20 03:47:26;;;;;;;10.57;7.80;;;13.50;95.10;;;;;;5091888;28;20437;-73
2022/10/20 03:49:52;;;;;;;10.30;8.37;;;13.50;95.10;;;;;;5091482;28;20488;-73
2022/10/20 03:52:19;;;;;;;9.67;7.83;;;13.60;95.20;;;;;;5091193;28;20524;-73
2022/10/20 03:54:48;;;;;;;10.73;8.17;;;13.60;95.00;;;;;;5090646;28;20452;-73
2022/10/20 03:57:14;;;;;;;8.60;7.70;;;13.60;94.90;;;;;;5088801;28;20821;-73
2022/10/20 03:59:41;;;;;;;9.90;7.60;;;13.50;95.00;;;;;;5083280;28;20477;-73
2022/10/20 04:02:08;;;;;;;13.33;8.50;;;13.60;94.80;;;;;;5088106;28;20448;-73
2022/10/20 04:04:34;;;;;;;10.47;8.20;;;13.60;94.70;;;;;;5089248;28;20448;-73
2022/10/20 04:07:01;;;;;;;10.23;7.40;;;13.60;94.70;;;;;;5089970;28;20456;-73
2022/10/20 04:09:28;;;;;;;8.80;7.90;;;13.60;94.60;;;;;;5089118;28;20582;-73
2022/10/20 04:11:56;;;;;;;11.50;7.90;;;13.50;94.50;;;;;;5091396;28;20848;-73
2022/10/20 04:14:23;;;;;;;11.73;8.33;;;13.50;94.70;;;;;;5088820;28;20444;-73
2022/10/20 04:16:49;;;;;;;8.70;7.00;;;13.50;94.60;;;;;;5090428;28;20445;-73
2022/10/20 04:19:16;;;;;;;8.70;7.90;;;13.50;94.70;;;;;;5090382;28;20493;-74
2022/10/20 04:21:43;;;;;;;8.97;7.33;;;13.50;94.70;;;;;;5094262;28;20435;-74
2022/10/20 04:24:09;;;;;;;12.13;7.80;;;13.50;94.80;;;;;;5093623;28;20946;-73
2022/10/20 04:26:36;;;;;;;12.63;7.67;;;13.50;94.70;;;;;;5094496;28;20434;-73
2022/10/20 04:29:04;;;;;;;9.40;7.23;;;13.40;94.70;;;;;;5091424;28;20449;-74
2022/10/20 04:31:31;;;;;;;15.53;8.50;;;13.40;94.70;;;;;;5089836;28;20492;-74
2022/10/20 04:33:58;;;;;;;9.20;8.30;;;13.50;95.20;;;;;;5087704;28;20452;-74
2022/10/20 04:36:24;;;;;;;12.77;7.77;;;13.40;94.80;;;;;;5090154;28;20435;-74
2022/10/20 04:38:51;;;;;;;9.67;8.67;;;13.40;94.90;;;;;;5092502;28;20462;-73
2022/10/20 04:41:18;;;;;;;11.10;7.90;;;13.40;94.80;;;;;;5091013;28;20483;-73
2022/10/20 04:43:50;;;;;;;10.10;8.50;;;13.40;94.90;;;;;;5093163;28;20433;-74
2022/10/20 04:46:19;;;;;;;10.43;7.97;;;13.30;94.90;;;;;;5090370;28;20444;-74
2022/10/20 04:48:46;;;;;;;8.50;7.33;;;13.30;95.00;;;;;;5088772;28;20463;-74
2022/10/20 04:51:15;;;;;;;14.73;7.77;;;13.40;94.80;;;;;;5087781;28;20548;-74
2022/10/20 04:53:42;;;;;;;9.60;8.03;;;13.40;94.80;;;;;;5090790;28;20474;-74
2022/10/20 04:56:12;;;;;;;8.77;7.77;;;13.40;94.70;;;;;;5091590;28;20443;-75
2022/10/20 04:58:38;;;;;;;9.03;6.57;;;13.40;94.70;;;;;;5093811;28;20443;-74
2022/10/20 05:01:07;;;;;;;8.97;6.63;;;13.40;94.50;;;;;;5093711;28;20465;-73
2022/10/20 05:03:36;;;;;;;11.20;6.80;;;13.40;94.50;;;;;;5094672;28;20428;-74
2022/10/20 05:06:11;;;;;;;10.53;8.30;;;13.40;94.60;;;;;;5095466;28;20437;-74
2022/10/20 05:08:37;;;;;;;9.70;7.60;;;13.40;94.60;;;;;;5094824;28;20472;-74
2022/10/20 05:11:04;;;;;;;10.17;7.07;;;13.40;94.60;;;;;;5094988;28;20487;-74
2022/10/20 05:13:31;;;;;;;8.43;7.03;;;13.40;94.60;;;;;;5095240;28;20660;-75
2022/10/20 05:15:58;;;;;;;9.23;8.10;;;13.30;94.40;;;;;;5094121;28;20454;-74
2022/10/20 05:18:24;;;;;;;8.83;7.10;;;13.20;94.50;;;;;;5094553;28;20501;-74
2022/10/20 05:20:53;;;;;;;11.10;7.40;;;13.20;94.50;;;;;;5094056;28;20479;-74
2022/10/20 05:23:19;;;;;;;12.63;7.83;;;13.20;94.60;;;;;;5096389;28;20437;-73
2022/10/20 05:25:46;;;;;;;10.67;7.50;;;13.20;94.60;;;;;;5094022;28;20452;-74
2022/10/20 05:28:13;;;;;;;9.13;7.30;;;13.20;95.10;;;;;;5094363;28;20440;-73
2022/10/20 05:30:41;;;;;;;8.10;7.17;;;13.20;94.70;;;;;;5093615;28;20490;-73
2022/10/20 05:33:08;;;;;;;14.33;7.37;;;13.10;94.60;;;;;;5092874;28;20434;-74
2022/10/20 05:35:35;;;;;;;9.67;7.50;;;13.10;94.70;;;;;;5093247;28;20468;-74
2022/10/20 05:38:03;;;;;;;7.70;6.90;;;13.10;94.60;;;;;;5092519;28;20456;-74
2022/10/20 05:40:29;;;;;;;9.90;7.60;;;13.10;94.70;;;;;;5090487;28;20463;-74
2022/10/20 05:42:57;;;;;;;12.40;7.43;;;13.10;94.70;;;;;;5091774;28;20449;-74
2022/10/20 05:45:24;;;;;;;8.80;7.67;;;13.10;94.70;;;;;;5092861;28;20514;-74
2022/10/20 05:47:50;;;;;;;13.63;7.60;;;13.10;95.10;;;;;;5092605;28;20462;-74
2022/10/20 05:50:17;;;;;;;7.83;6.27;;;13.00;94.90;;;;;;5091909;28;20638;-73
2022/10/20 05:52:44;;;;;;;8.63;7.90;;;13.00;95.00;;;;;;5095488;28;20458;-74
2022/10/20 05:55:12;;;;;;;10.60;6.97;;;13.00;94.90;;;;;;5096086;28;20451;-74
2022/10/20 05:57:39;;;;;;;16.10;6.90;;;12.90;94.90;;;;;;5097592;28;20456;-74
2022/10/20 06:00:07;;;;;;;11.60;6.90;;;13.00;95.00;;;;;;5097503;28;20464;-73
2022/10/20 06:02:34;;;;;;;10.67;7.60;;;13.00;95.10;;;;;;5094128;28;20447;-73
2022/10/20 06:05:00;;;;;;;14.23;7.63;;;13.00;94.90;;;;;;5096611;28;20452;-74
2022/10/20 06:07:27;;;;;;;10.53;7.63;;;13.10;95.00;;;;;;5095952;28;20535;-73
2022/10/20 06:09:54;;;;;;;8.03;7.20;;;13.10;94.80;;;;;;5096566;28;20509;-73
2022/10/20 06:12:22;;;;;;;9.20;8.30;;;13.10;94.70;;;;;;5097342;28;20448;-73
2022/10/20 06:14:49;;;;;;;9.10;7.90;;;13.10;94.90;;;;;;5095806;28;20476;-74
2022/10/20 06:17:16;;;;;;;8.47;7.63;;;13.10;94.60;;;;;;5094290;28;20446;-73
2022/10/20 06:19:42;;;;;;;8.97;7.87;;;13.10;94.70;;;;;;5095193;28;20506;-73
2022/10/20 06:22:09;;;;;;;8.83;7.87;;;13.00;94.80;;;;;;5095791;28;20437;-73
2022/10/20 06:24:36;;;;;;;10.10;7.50;;;12.90;94.90;;;;;;5091961;28;20429;-73
2022/10/20 06:27:02;;;;;;;10.20;8.00;;;13.00;95.20;;;;;;5092270;28;20445;-73
2022/10/20 06:29:31;;;;;;;10.20;8.53;;;13.00;95.30;;;;;;5082680;28;20473;-73
2022/10/20 06:31:58;;;;;;;9.07;8.13;;;12.90;95.10;;;;;;5080455;28;20852;-72
2022/10/20 06:34:25;;;;;;;8.17;7.03;;;12.90;95.30;;;;;;5086959;28;20458;-73
2022/10/20 06:36:52;;;;;;;12.33;7.53;;;12.90;95.30;;;;;;5091911;28;20443;-73
2022/10/20 06:39:21;;;;;;;8.60;7.80;;;12.90;95.40;;;;;;5093504;28;20468;-73
2022/10/20 06:41:49;;;;;;;9.60;7.53;;;12.90;95.40;;;;;;5091383;28;20483;-73
2022/10/20 06:44:16;;;;;;;9.63;7.87;;;13.00;95.40;;;;;;5093299;28;20467;-73
2022/10/20 06:46:44;;;;;;;8.60;7.70;;;13.00;95.40;;;;;;5095259;28;20449;-73
2022/10/20 06:49:12;;;;;;;12.43;8.37;;;13.00;95.10;;;;;;5092073;28;20456;-72
2022/10/20 06:51:39;;;;;;;10.10;7.77;;;13.10;95.20;;;;;;5084918;28;20487;-72
2022/10/20 06:54:08;;;;;;;9.27;7.63;;;13.10;95.10;;;;;;5085083;28;20462;-72
2022/10/20 06:56:36;;;;;;;12.10;8.13;;;13.20;95.00;;;;;;5084523;28;20460;-72
2022/10/20 06:59:03;;;;;;;12.73;8.17;;;13.20;94.90;;;;;;5086045;28;20439;-72
2022/10/20 07:01:31;;;;;;;12.53;8.30;;;13.20;94.70;;;;;;5083289;28;20462;-70
2022/10/20 07:04:01;;;;;;;9.00;8.10;;;13.20;94.80;;;;;;5077950;28;20444;-71
2022/10/20 07:06:30;;;;;;;11.77;7.07;;;13.20;94.90;;;;;;5079881;28;20448;-71
2022/10/20 07:08:58;;;;;;;8.93;7.43;;;13.20;94.90;;;;;;5084679;28;20464;-70
2022/10/20 07:11:26;;;;;;;13.37;8.60;;;13.20;94.90;;;;;;5083085;28;20498;-70
2022/10/20 07:13:54;;;;;;;12.27;7.40;;;13.20;94.80;;;;;;5082057;28;20437;-70
2022/10/20 07:16:23;;;;;;;9.60;8.10;;;13.30;94.90;;;;;;5081568;28;20459;-70
2022/10/20 07:18:50;;;;;;;10.17;8.77;;;13.30;95.00;;;;;;5081105;28;20494;-71
2022/10/20 07:21:20;;;;;;;8.00;7.20;;;13.30;94.90;;;;;;5085295;28;20454;-71
2022/10/20 07:23:48;;;;;;;10.93;8.60;;;13.30;95.00;;;;;;5094771;28;20442;-72
2022/10/20 07:26:17;;;;;;;11.30;8.57;;;13.40;95.20;;;;;;5095218;28;20515;-72
2022/10/20 07:28:45;;;;;;;8.90;7.97;;;13.40;94.90;;;;;;5094890;28;20443;-72
2022/10/20 07:31:17;;;;;;;10.50;7.70;;;13.50;94.90;;;;;;5094940;28;20498;-72
2022/10/20 07:33:43;;;;;;;11.07;8.00;;;13.60;94.80;;;;;;5095735;28;20456;-72
2022/10/20 07:36:14;;;;;;;10.67;7.83;;;13.60;94.60;;;;;;5094683;28;20439;-72
2022/10/20 07:38:44;;;;;;;9.53;7.60;;;13.70;94.40;;;;;;5095231;28;20435;-72
2022/10/20 07:41:11;;;;;;;18.13;7.93;;;13.70;94.20;;;;;;5095021;28;20463;-72
2022/10/20 07:43:39;;;;;;;19.80;9.50;;;13.80;94.50;;;;;;5095528;28;20457;-72
2022/10/20 07:46:05;;;;;;;11.67;8.60;;;13.80;94.00;;;;;;5095240;28;20449;-72
2022/10/20 07:48:33;;;;;;;10.27;7.57;;;13.90;93.90;;;;;;5095637;28;20455;-72
2022/10/20 07:51:14;;;;;;;10.40;7.80;;;14.00;93.80;;;;;;5094709;28;20919;-74
2022/10/20 07:53:43;;;;;;;12.10;8.47;;;14.10;93.80;;;;;;5094739;28;20443;-72
2022/10/20 07:56:10;;;;;;;10.43;7.73;;;14.20;93.60;;;;;;5095252;28;20435;-72
2022/10/20 07:58:37;;;;;;;11.03;8.50;;;14.20;93.30;;;;;;5093291;28;20444;-72
2022/10/20 08:01:04;;;;;;;8.97;7.93;;;14.30;93.50;;;;;;5092491;28;20461;-72
2022/10/20 08:03:31;;;;;;;12.97;7.70;;;14.30;93.20;;;;;;5092010;28;20463;-72
2022/10/20 08:05:58;;;;;;;8.50;7.33;;;14.50;93.30;;;;;;5090213;28;20448;-71
2022/10/20 08:08:25;;;;;;;10.50;7.17;;;14.60;92.90;;;;;;5090265;28;20424;-71
2022/10/20 08:10:53;;;;;;;12.03;8.20;;;14.60;92.70;;;;;;5091029;28;20499;-71
2022/10/20 08:13:20;;;;;;;9.57;7.73;;;14.80;92.70;;;;;;5093136;28;20429;-72
2022/10/20 08:15:46;;;;;;;8.93;7.97;;;14.80;92.40;;;;;;5091481;28;20448;-71
2022/10/20 08:18:13;;;;;;;8.80;7.97;;;14.80;92.20;;;;;;5083357;28;20441;-70
2022/10/20 08:20:40;;;;;;;9.93;8.97;;;14.90;92.30;;;;;;5084140;28;20476;-70
2022/10/20 08:23:07;;;;;;;9.70;8.13;;;14.90;92.20;;;;;;5084627;28;20452;-70
2022/10/20 08:25:33;;;;;;;12.77;8.37;;;14.90;92.10;;;;;;5082188;28;20467;-71
2022/10/20 08:28:01;;;;;;;8.70;7.60;;;14.90;92.00;;;;;;5082852;28;20437;-70
2022/10/20 08:30:28;;;;;;;9.80;7.80;;;15.00;92.40;;;;;;5080166;28;20483;-71
2022/10/20 08:32:55;;;;;;;9.50;8.60;;;15.00;92.20;;;;;;5077781;28;20449;-69
2022/10/20 08:35:22;;;;;;;9.93;7.53;;;15.00;92.20;;;;;;5078525;28;20475;-70
2022/10/20 08:37:49;;;;;;;8.17;7.43;;;15.10;92.20;;;;;;5076784;28;20443;-70
2022/10/20 08:40:20;;;;;;;7.97;7.10;;;15.10;92.20;;;;;;5077970;28;20476;-71
2022/10/20 08:42:47;;;;;;;8.20;7.37;;;15.20;92.00;;;;;;5080296;28;20453;-71
2022/10/20 08:45:17;;;;;;;9.60;8.60;;;15.30;91.90;;;;;;5079153;28;20512;-70
2022/10/20 08:47:45;;;;;;;11.17;8.00;;;15.30;91.70;;;;;;5078672;28;20436;-70
2022/10/20 08:50:15;;;;;;;10.50;8.90;;;15.40;91.60;;;;;;5080011;28;20469;-70
2022/10/20 08:52:44;;;;;;;8.40;7.70;;;15.50;91.60;;;;;;5080914;28;20472;-70
2022/10/20 08:55:20;;;;;;;9.00;8.10;;;15.50;91.10;;;;;;5081199;28;20443;-70
2022/10/20 08:57:49;;;;;;;9.80;8.80;;;15.50;90.90;;;;;;5079897;28;20440;-70
2022/10/20 09:00:20;;;;;;;8.87;7.97;;;15.50;91.00;;;;;;5079959;28;20499;-70
2022/10/20 09:02:48;;;;;;;8.93;7.70;;;15.50;91.00;;;;;;5078632;28;20447;-70
2022/10/20 09:05:16;;;;;;;10.90;7.83;;;15.50;91.20;;;;;;5076477;28;20849;-70
2022/10/20 09:07:43;;;;;;;9.77;7.80;;;15.60;91.20;;;;;;5075409;28;20453;-71
2022/10/20 09:10:22;;;;;;;13.27;8.50;;;15.70;91.00;;;;;;5078579;28;20519;-70
2022/10/20 09:12:51;;;;;;;11.60;8.33;;;15.90;90.70;;;;;;5078870;28;20468;-71
2022/10/20 09:15:20;;;;;;;7.80;6.50;;;16.00;90.40;;;;;;5076833;28;20449;-71
2022/10/20 09:17:51;;;;;;;11.57;8.47;;;16.10;90.00;;;;;;5077406;28;20459;-70
2022/10/20 09:20:21;;;;;;;13.33;8.50;;;16.20;89.00;;;;;;5077447;28;20480;-70
2022/10/20 09:22:48;;;;;;;8.43;7.20;;;16.30;88.90;;;;;;5077349;28;20441;-70
2022/10/20 09:25:17;;;;;;;11.03;7.90;;;16.40;88.80;;;;;;5075858;28;20510;-70
2022/10/20 09:27:45;;;;;;;11.63;7.40;;;16.50;88.60;;;;;;5076771;28;20441;-71
2022/10/20 09:30:20;;;;;;;14.33;7.73;;;16.50;87.90;;;;;;5078416;28;20468;-71
2022/10/20 09:32:47;;;;;;;9.27;8.30;;;16.50;88.10;;;;;;5081541;28;20472;-71
2022/10/20 09:35:27;;;;;;;9.27;7.43;;;16.50;87.90;;;;;;5083916;28;20497;-71
2022/10/20 09:38:01;;;;;;;10.57;8.80;;;16.50;87.40;;;;;;5083942;28;20433;-71
2022/10/20 09:40:29;;;;;;;8.20;7.47;;;16.40;87.20;;;;;;5083398;28;20479;-71
2022/10/20 09:42:59;;;;;;;8.90;7.70;;;16.30;87.40;;;;;;5085661;28;20456;-70
2022/10/20 09:45:30;;;;;;;10.80;8.60;;;16.20;88.40;;;;;;5086773;28;20439;-70
2022/10/20 09:48:02;;;;;;;12.00;7.90;;;16.20;89.60;;;;;;5086176;28;20463;-70
2022/10/20 09:50:32;;;;;;;9.80;8.80;;;16.10;90.00;;;;;;5087511;28;20473;-69
2022/10/20 09:53:01;;;;;;;9.30;8.07;;;16.00;90.40;;;;;;5086621;28;20892;-69
2022/10/20 09:55:31;;;;;;;11.00;9.10;;;15.90;90.80;;;;;;5087475;28;20436;-70
2022/10/20 09:58:00;;;;;;;11.63;7.87;;;15.70;91.00;;;;;;5088519;28;20453;-70
2022/10/20 10:00:32;;;;;;;9.23;8.20;;;15.60;91.00;;;;;;5085616;28;20468;-70
2022/10/20 10:03:10;;;;;;;17.70;9.60;;;15.60;91.40;;;;;;5084246;28;20436;-70
2022/10/20 10:05:37;;;;;;;10.73;8.77;;;15.60;91.60;;;;;;5085190;28;20432;-70
2022/10/20 10:08:04;;;;;;;8.77;7.93;;;15.70;91.90;;;;;;5085570;28;20440;-71
2022/10/20 10:10:31;;;;;;;10.50;8.97;;;15.80;91.90;;;;;;5085311;28;21066;-70
2022/10/20 10:13:02;;;;;;;12.53;8.40;;;16.00;91.60;;;;;;5088655;28;20476;-70
2022/10/20 10:15:33;;;;;;;10.50;9.40;;;16.10;91.50;;;;;;5089177;28;20433;-70
2022/10/20 10:18:11;;;;;;;10.37;9.37;;;16.20;91.50;;;;;;5085487;28;20820;-70
2022/10/20 10:20:40;;;;;;;9.27;7.80;;;16.30;91.50;;;;;;5090445;28;20465;-70
2022/10/20 10:23:22;;;;;;;10.00;9.10;;;16.40;91.40;;;;;;5092839;28;20449;-70
2022/10/20 10:25:49;;;;;;;13.67;10.13;;;16.50;91.70;;;;;;5091558;28;20515;-70
2022/10/20 10:28:29;;;;;;;11.20;8.70;;;16.60;91.70;;;;;;5091449;28;20449;-70
2022/10/20 10:31:09;;;;;;;10.60;9.30;;;16.60;91.50;;;;;;5089029;28;20477;-70
2022/10/20 10:33:36;;;;;;;10.27;8.77;;;16.60;91.70;;;;;;5086896;28;20506;-70
2022/10/20 10:36:07;;;;;;;10.73;9.63;;;16.60;91.90;;;;;;5089103;28;20784;-70
2022/10/20 10:38:35;;;;;;;14.57;10.30;;;16.50;91.90;;;;;;5087720;28;20429;-70
2022/10/20 10:41:12;;;;;;;13.17;10.60;;;16.40;92.20;;;;;;5087065;28;20473;-70
2022/10/20 10:43:48;;;;;;;11.27;10.27;;;16.40;92.40;;;;;;5095811;28;20465;-70
2022/10/20 10:46:19;;;;;;;10.23;9.07;;;16.30;92.70;;;;;;5092044;28;20820;-69
2022/10/20 10:49:27;;;;;;;10.83;9.73;;;16.30;92.70;;;;;;5088528;28;20432;-69
2022/10/20 10:52:05;;;;;;;10.63;9.13;;;16.20;93.30;;;;;;5059240;28;20499;-69
2022/10/20 10:54:43;;;;;;;16.70;10.63;;;16.20;93.20;;;;;;5088396;28;20421;-69
2022/10/20 10:57:15;;;;;;;11.40;9.30;;;16.30;93.40;;;;;;5088494;28;20939;-69
2022/10/20 10:59:44;;;;;;;13.30;10.47;;;16.30;93.70;;;;;;5089184;28;20484;-69
2022/10/20 11:02:32;;;;;;;12.07;10.87;;;16.20;93.80;;;;;;5091256;28;20821;-69
2022/10/20 11:05:22;;;;;;;12.73;9.70;;;16.20;93.80;;;;;;5090116;28;20474;-69
2022/10/20 11:07:59;;;;;;;12.73;11.20;;;16.20;94.00;;;;;;5090262;28;20443;-69
2022/10/20 11:10:34;;;;;;;13.13;10.00;;;16.10;94.10;;;;;;5089195;28;20500;-69
2022/10/20 11:13:15;;;;;;;13.90;11.33;;;16.10;94.30;;;;;;5078520;28;20471;-68
2022/10/20 11:15:57;;;;;;;12.87;10.60;;;16.00;94.40;;;;;;5075663;28;20433;-68
2022/10/20 11:18:44;;;;;;;12.83;10.17;;;16.00;94.80;;;;;;5075029;28;20440;-69
2022/10/20 11:21:21;;;;;;;17.17;12.27;;;16.00;95.00;;;;;;5075017;28;20473;-69
2022/10/20 11:23:59;;;;;;;12.40;10.90;;;15.90;95.40;;;;;;5075261;28;20803;-69
2022/10/20 11:26:31;;;;;;;15.77;11.47;;;15.90;95.60;;;;;;5074749;28;20433;-69
2022/10/20 11:29:00;;;;;;;14.90;11.97;;;15.80;95.60;;;;;;5074764;28;20472;-68
2022/10/20 11:31:34;;;;;;;15.10;12.67;;;15.80;95.90;;;;;;5074677;28;20441;-69
2022/10/20 11:34:05;;;;;;;14.73;12.90;;;15.70;96.10;;;;;;5074654;28;20433;-69
2022/10/20 11:36:39;;;;;;;15.70;13.00;;;15.70;96.60;;;;;;5074803;28;20478;-70
2022/10/20 11:39:11;;;;;;;16.40;12.70;;;15.70;96.70;;;;;;5075200;28;20440;-70
2022/10/20 11:41:42;;;;;;;15.70;14.03;;;15.70;97.10;;;;;;5074551;28;20469;-70
2022/10/20 11:44:15;;;;;;;19.10;15.30;;;15.70;97.30;;;;;;5074843;28;20433;-70
2022/10/20 11:46:49;;;;;;;16.90;14.50;;;15.70;97.70;;;;;;5074591;28;20464;-70
2022/10/20 11:49:18;;;;;;;19.93;16.23;;;15.70;97.80;;;;;;5073050;28;20834;-71
2022/10/20 11:52:26;;;;;;;17.50;14.93;;;15.70;97.90;;;;;;5074413;28;20437;-71
2022/10/20 11:55:05;;;;;;;19.23;12.40;;;15.60;98.20;;;;;;5011443;28;20454;-70
2022/10/20 11:57:44;;;;;;;19.17;14.60;;;15.50;98.30;;;;;;5064792;28;20457;-69
2022/10/20 12:00:31;;;;;;;22.07;15.23;;;15.60;98.60;;;;;;5074285;28;20465;-69
2022/10/20 12:03:41;;;;;;;23.33;13.67;;;15.50;98.80;;;;;;5074122;28;20769;-69
2022/10/20 12:06:45;;;;;;;20.47;13.10;;;15.60;99.00;;;;;;5074355;28;20784;-69
2022/10/20 12:09:53;;;;;;;13.10;11.70;;;15.60;99.10;;;;;;5071926;28;20479;-70
2022/10/20 12:12:27;;;;;;;15.80;14.20;;;15.70;99.20;;;;;;5058486;28;20491;-70
2022/10/20 12:14:58;;;;;;;16.53;13.93;;;15.70;99.20;;;;;;5074121;28;20441;-71
2022/10/20 12:17:34;;;;;;;16.30;13.10;;;15.80;99.20;;;;;;5074013;28;20438;-71
2022/10/20 12:20:38;;;;;;;16.57;14.87;;;15.90;99.10;;;;;;5074059;28;20468;-71
2022/10/20 12:23:26;;;;;;;15.43;13.87;;;16.00;99.10;;;;;;5073874;28;20433;-71
2022/10/20 12:25:53;;;;;;;14.43;12.60;;;16.10;98.80;;;;;;5082149;28;20459;-70
2022/10/20 12:28:33;;;;;;;13.57;12.20;;;16.30;98.60;;;;;;5083629;28;20815;-70
2022/10/20 12:31:01;;;;;;;14.47;12.47;;;16.40;98.20;;;;;;5084770;28;21044;-70
2022/10/20 12:33:40;;;;;;;14.43;12.77;;;16.60;97.90;;;;;;5085383;28;20477;-70
2022/10/20 12:36:29;;;;;;;16.50;12.47;;;16.80;97.30;;;;;;5083625;28;20429;-70
2022/10/20 12:42:22;;;;;;;18.73;13.00;;;17.10;96.20;;;;;;5084527;28;20536;-71
2022/10/20 12:44:49;;;;;;;13.60;12.10;;;17.20;96.10;;;;;;5083076;28;20432;-71
2022/10/20 12:47:20;;;;;;;14.33;12.97;;;17.30;96.00;;;;;;5083742;28;20444;-71
2022/10/20 12:49:54;;;;;;;14.60;12.73;;;17.30;95.70;;;;;;5085428;28;20464;-71
2022/10/20 12:52:24;;;;;;;18.13;12.77;;;17.30;95.70;;;;;;5085246;28;20543;-71
2022/10/20 12:54:58;;;;;;;14.53;12.90;;;17.30;95.80;;;;;;5085841;28;20453;-71
2022/10/20 12:57:30;;;;;;;13.00;10.80;;;17.40;95.90;;;;;;5085880;28;20432;-71
2022/10/20 12:59:57;;;;;;;13.10;11.63;;;17.40;95.80;;;;;;5080941;28;20481;-71